Time;durP1;ratioP1;P1;durP2;ratioP2;P2;SDS_P1;SDS_P2;PMS_P1;PMS_P2;Temp;Humidity;BMP_temperature;BMP_pressure;BME280_temperature;BME280_humidity;BME280_pressure;Samples;Min_cycle;Max_cycle;Signal;HPM_P1;HPM_P2
2022/03/27 00:01:53;;;;;;;6.28;4.75;;;9.70;99.90;;;;;;4914244;29;20056;-91
2022/03/27 00:04:19;;;;;;;6.53;4.97;;;9.60;99.90;;;;;;4917891;29;20035;-91
2022/03/27 00:06:45;;;;;;;6.13;4.38;;;9.70;99.90;;;;;;4929367;29;20032;-91
2022/03/27 00:09:11;;;;;;;6.85;4.68;;;9.70;99.90;;;;;;4939752;29;20031;-91
2022/03/27 00:11:45;;;;;;;8.07;5.72;;;9.70;99.90;;;;;;4942524;29;20075;-91
2022/03/27 00:14:11;;;;;;;9.38;5.90;;;9.80;99.90;;;;;;4935432;29;20120;-91
2022/03/27 00:16:37;;;;;;;7.03;5.60;;;9.80;99.90;;;;;;4935643;29;20034;-91
2022/03/27 00:19:02;;;;;;;7.25;5.18;;;9.70;99.90;;;;;;4925748;29;20055;-90
2022/03/27 00:21:28;;;;;;;7.57;5.72;;;9.70;99.90;;;;;;4938775;29;20020;-90
2022/03/27 00:23:54;;;;;;;8.50;5.65;;;9.70;99.90;;;;;;4951525;29;20043;-90
2022/03/27 00:26:23;;;;;;;8.25;5.20;;;9.80;99.90;;;;;;4948566;29;20103;-90
2022/03/27 00:28:50;;;;;;;7.60;5.25;;;9.80;99.90;;;;;;4943157;29;20036;-91
2022/03/27 00:31:16;;;;;;;8.13;4.80;;;9.80;99.90;;;;;;4943918;29;20498;-92
2022/03/27 00:33:46;;;;;;;7.50;5.35;;;9.70;99.90;;;;;;4948832;29;20074;-90
2022/03/27 00:36:14;;;;;;;6.38;5.25;;;9.80;99.90;;;;;;4941976;29;20051;-92
2022/03/27 00:38:41;;;;;;;7.90;5.43;;;9.80;99.90;;;;;;4939576;29;20052;-91
2022/03/27 00:41:08;;;;;;;7.20;5.20;;;9.80;99.90;;;;;;4938996;29;20541;-92
2022/03/27 00:43:39;;;;;;;8.07;6.10;;;9.80;99.90;;;;;;4939373;29;20035;-92
2022/03/27 00:46:06;;;;;;;7.05;5.57;;;9.90;99.90;;;;;;4939605;29;20123;-91
2022/03/27 00:48:33;;;;;;;8.45;5.57;;;9.90;99.90;;;;;;4939376;29;20068;-90
2022/03/27 00:50:58;;;;;;;21.20;17.15;;;9.90;99.90;;;;;;4939060;29;20038;-91
2022/03/27 00:53:24;;;;;;;29.33;24.52;;;9.90;99.90;;;;;;4939074;29;20562;-90
2022/03/27 00:55:53;;;;;;;24.92;20.33;;;9.80;99.90;;;;;;4939182;29;20107;-91
2022/03/27 00:58:22;;;;;;;19.65;16.85;;;9.80;99.90;;;;;;4939203;29;20130;-91
2022/03/27 01:01:09;;;;;;;14.27;11.23;;;9.80;99.90;;;;;;4940361;29;20032;-94
2022/03/27 01:03:43;;;;;;;10.38;8.60;;;9.80;99.90;;;;;;4929062;29;20076;-91
2022/03/27 01:06:24;;;;;;;;;;;9.70;99.90;;;;;;4942596;29;20607;-92
2022/03/27 01:11:36;;;;;;;9.82;7.32;;;9.60;99.90;;;;;;4941998;29;20074;-93
2022/03/27 01:14:02;;;;;;;10.07;7.18;;;9.60;99.90;;;;;;4939531;29;20156;-93
2022/03/27 01:16:37;;;;;;;8.45;7.32;;;9.60;99.90;;;;;;4939664;29;20062;-90
2022/03/27 01:19:04;;;;;;;10.60;8.95;;;9.60;99.90;;;;;;4923759;29;20043;-93
2022/03/27 01:21:34;;;;;;;9.80;7.70;;;9.60;99.90;;;;;;4938931;29;20130;-92
2022/03/27 01:23:59;;;;;;;11.25;9.10;;;9.60;99.90;;;;;;4938816;29;20044;-92
2022/03/27 01:26:29;;;;;;;9.98;8.15;;;9.60;99.90;;;;;;4940993;29;20032;-91
2022/03/27 01:28:55;;;;;;;8.77;7.15;;;9.60;99.90;;;;;;4943915;29;20035;-92
2022/03/27 01:31:22;;;;;;;8.32;7.13;;;9.60;99.90;;;;;;4938801;29;20024;-93
2022/03/27 01:33:48;;;;;;;9.82;7.88;;;9.60;99.90;;;;;;4938314;29;20032;-91
2022/03/27 01:36:25;;;;;;;9.48;8.27;;;9.60;99.90;;;;;;4938160;29;20083;-91
2022/03/27 01:38:52;;;;;;;10.85;8.60;;;9.70;99.90;;;;;;4938887;29;20060;-92
2022/03/27 01:41:18;;;;;;;9.80;7.82;;;9.60;99.90;;;;;;4939312;29;20462;-92
2022/03/27 01:43:43;;;;;;;10.55;9.00;;;9.60;99.90;;;;;;4939045;29;20023;-92
2022/03/27 01:46:09;;;;;;;10.55;9.13;;;9.50;99.90;;;;;;4940274;29;20119;-93
2022/03/27 01:48:35;;;;;;;13.90;10.25;;;9.60;99.90;;;;;;4928806;29;20038;-91
2022/03/27 01:51:01;;;;;;;11.20;9.98;;;9.60;99.90;;;;;;4938650;29;20031;-93
2022/03/27 01:53:27;;;;;;;12.88;10.40;;;9.60;99.90;;;;;;4937355;29;20039;-91
2022/03/27 01:55:53;;;;;;;11.13;9.93;;;9.50;99.90;;;;;;4939832;29;20036;-91
2022/03/27 01:58:19;;;;;;;10.27;9.18;;;9.50;99.90;;;;;;4939226;29;20043;-92
2022/03/27 02:00:45;;;;;;;10.02;8.45;;;9.60;99.90;;;;;;4938337;29;20054;-92
2022/03/27 02:03:11;;;;;;;11.60;8.75;;;9.50;99.90;;;;;;4939994;29;20118;-93
2022/03/27 02:05:37;;;;;;;10.85;9.15;;;9.50;99.90;;;;;;4939198;29;20028;-93
2022/03/27 02:08:03;;;;;;;11.07;9.65;;;9.50;99.90;;;;;;4940203;29;20115;-92
2022/03/27 02:10:29;;;;;;;10.35;8.43;;;9.40;99.90;;;;;;4938920;29;20043;-92
2022/03/27 02:12:56;;;;;;;11.75;8.77;;;9.40;99.90;;;;;;4940843;29;20047;-92
2022/03/27 02:15:23;;;;;;;10.02;8.27;;;9.40;99.90;;;;;;4941433;29;20027;-93
2022/03/27 02:17:49;;;;;;;9.02;7.53;;;9.50;99.90;;;;;;4945863;29;20035;-94
2022/03/27 02:20:15;;;;;;;8.70;6.63;;;9.50;99.90;;;;;;4945520;29;20032;-92
2022/03/27 02:22:41;;;;;;;8.88;7.65;;;9.60;99.90;;;;;;4939148;29;20059;-92
2022/03/27 02:25:07;;;;;;;11.65;8.45;;;9.60;99.90;;;;;;4937906;29;20028;-91
2022/03/27 02:27:33;;;;;;;9.45;7.75;;;9.60;99.90;;;;;;4939324;29;20430;-90
2022/03/27 02:29:59;;;;;;;10.93;8.80;;;9.60;99.90;;;;;;4941351;29;20079;-91
2022/03/27 02:32:24;;;;;;;10.32;8.70;;;9.50;99.90;;;;;;4944312;29;20051;-90
2022/03/27 02:34:50;;;;;;;9.35;7.65;;;9.50;99.90;;;;;;4943485;29;20042;-92
2022/03/27 02:37:16;;;;;;;9.65;8.00;;;9.40;99.90;;;;;;4947013;29;20040;-92
2022/03/27 02:39:44;;;;;;;9.65;7.10;;;9.40;99.90;;;;;;4946990;29;20043;-93
2022/03/27 02:42:10;;;;;;;9.02;7.10;;;9.50;99.90;;;;;;4938351;29;20031;-92
2022/03/27 02:44:35;;;;;;;10.07;8.98;;;9.40;99.90;;;;;;4937484;29;20068;-91
2022/03/27 02:47:01;;;;;;;10.43;7.85;;;9.40;99.90;;;;;;4937037;29;20028;-91
2022/03/27 02:49:27;;;;;;;10.30;8.35;;;9.20;99.90;;;;;;4937854;29;20474;-92
2022/03/27 02:51:53;;;;;;;10.82;8.55;;;9.20;99.90;;;;;;4937537;29;20044;-92
2022/03/27 02:54:18;;;;;;;11.15;8.70;;;9.20;99.90;;;;;;4938411;29;20032;-91
2022/03/27 02:56:45;;;;;;;11.65;9.88;;;9.10;99.90;;;;;;4936472;29;20095;-92
2022/03/27 02:59:11;;;;;;;12.32;9.93;;;9.00;99.90;;;;;;4937201;29;20067;-91
2022/03/27 03:01:37;;;;;;;11.65;9.70;;;9.00;99.90;;;;;;4936578;29;20487;-93
2022/03/27 03:04:04;;;;;;;12.25;9.45;;;9.00;99.90;;;;;;4936634;29;20509;-92
2022/03/27 03:06:32;;;;;;;14.07;9.85;;;9.00;99.90;;;;;;4936463;29;20067;-93
2022/03/27 03:08:58;;;;;;;11.02;8.15;;;9.00;99.90;;;;;;4936941;29;20024;-93
2022/03/27 03:11:23;;;;;;;9.80;8.07;;;9.00;99.90;;;;;;4936879;29;20091;-93
2022/03/27 03:13:51;;;;;;;11.02;8.48;;;9.00;99.90;;;;;;4937218;29;20031;-92
2022/03/27 03:16:17;;;;;;;11.18;9.27;;;9.00;99.90;;;;;;4937006;29;20078;-92
2022/03/27 03:18:44;;;;;;;12.73;9.38;;;9.10;99.90;;;;;;4936624;29;20039;-92
2022/03/27 03:21:10;;;;;;;11.23;8.88;;;9.00;99.90;;;;;;4936308;29;20039;-94
2022/03/27 03:23:36;;;;;;;12.77;9.82;;;9.00;99.90;;;;;;4936848;29;20020;-92
2022/03/27 03:26:01;;;;;;;14.55;10.45;;;9.00;99.90;;;;;;4936906;29;20043;-92
2022/03/27 03:28:27;;;;;;;13.43;9.52;;;9.00;99.90;;;;;;4936293;29;20111;-91
2022/03/27 03:30:54;;;;;;;12.18;8.70;;;8.90;99.90;;;;;;4940815;29;20501;-92
2022/03/27 03:33:20;;;;;;;12.15;9.30;;;9.00;99.90;;;;;;4939975;29;20523;-92
2022/03/27 03:35:46;;;;;;;13.30;9.43;;;8.90;99.90;;;;;;4923955;29;20159;-91
2022/03/27 03:38:12;;;;;;;16.83;11.05;;;8.90;99.90;;;;;;4933919;29;20052;-91
2022/03/27 03:40:41;;;;;;;15.13;10.93;;;8.80;99.90;;;;;;4921112;29;20126;-91
2022/03/27 03:43:07;;;;;;;14.00;9.55;;;8.80;99.90;;;;;;4920584;29;20028;-91
2022/03/27 03:45:33;;;;;;;13.10;9.55;;;8.70;99.90;;;;;;4920777;29;20029;-91
2022/03/27 03:47:59;;;;;;;13.93;9.60;;;8.70;99.90;;;;;;4921493;29;20088;-91
2022/03/27 03:50:27;;;;;;;14.63;9.43;;;8.80;99.90;;;;;;4921523;29;20028;-90
2022/03/27 03:52:53;;;;;;;15.93;10.20;;;8.80;99.90;;;;;;4924666;29;20126;-91
2022/03/27 03:55:19;;;;;;;16.33;11.00;;;8.70;99.90;;;;;;4928748;29;20064;-91
2022/03/27 03:57:44;;;;;;;17.55;11.15;;;8.70;99.90;;;;;;4927565;29;20036;-92
2022/03/27 04:00:11;;;;;;;15.40;10.23;;;8.70;99.90;;;;;;4924915;29;20067;-90
2022/03/27 04:02:36;;;;;;;16.27;10.15;;;8.60;99.90;;;;;;4924716;29;20035;-92
2022/03/27 04:05:02;;;;;;;16.27;10.35;;;8.70;99.90;;;;;;4925090;29;20036;-90
2022/03/27 04:07:28;;;;;;;18.30;10.15;;;8.70;99.90;;;;;;4922700;29;20459;-92
2022/03/27 04:09:54;;;;;;;17.50;10.50;;;8.70;99.90;;;;;;4920830;29;20083;-91
2022/03/27 04:12:19;;;;;;;18.80;12.00;;;8.70;99.90;;;;;;4921190;29;20048;-92
2022/03/27 04:14:45;;;;;;;19.27;12.18;;;8.70;99.90;;;;;;4920871;29;20040;-92
2022/03/27 04:17:11;;;;;;;22.60;13.38;;;8.60;99.90;;;;;;4920734;29;20040;-91
2022/03/27 04:19:37;;;;;;;21.17;12.65;;;8.50;99.90;;;;;;4921059;29;20084;-91
2022/03/27 04:22:04;;;;;;;20.48;12.82;;;8.50;99.90;;;;;;4920167;29;20522;-92
2022/03/27 04:24:29;;;;;;;25.58;14.68;;;8.50;99.90;;;;;;4920572;29;20052;-90
2022/03/27 04:26:55;;;;;;;21.30;13.63;;;8.40;99.90;;;;;;4920612;29;20032;-92
2022/03/27 04:29:21;;;;;;;22.65;13.95;;;8.40;99.90;;;;;;4919778;29;20047;-91
2022/03/27 04:31:47;;;;;;;22.25;12.82;;;8.40;99.90;;;;;;4919882;29;20044;-92
2022/03/27 04:34:13;;;;;;;20.75;12.70;;;8.40;99.90;;;;;;4919332;29;20064;-91
2022/03/27 04:36:38;;;;;;;20.70;12.68;;;8.40;99.90;;;;;;4919890;29;20134;-92
2022/03/27 04:39:05;;;;;;;18.88;12.13;;;8.30;99.90;;;;;;4919488;29;20163;-91
2022/03/27 04:41:30;;;;;;;18.67;11.45;;;8.30;99.90;;;;;;4918560;29;20470;-90
2022/03/27 04:43:56;;;;;;;18.08;10.63;;;8.30;99.90;;;;;;4920154;29;20087;-91
2022/03/27 04:46:22;;;;;;;18.45;11.48;;;8.30;99.90;;;;;;4919971;29;20074;-91
2022/03/27 04:48:49;;;;;;;21.38;12.93;;;8.30;99.90;;;;;;4920138;29;20032;-91
2022/03/27 04:51:16;;;;;;;19.17;12.70;;;8.30;99.90;;;;;;4920007;29;20032;-92
2022/03/27 04:53:41;;;;;;;17.63;11.05;;;8.30;99.90;;;;;;4919398;29;20048;-92
2022/03/27 04:56:07;;;;;;;23.30;13.80;;;8.30;99.90;;;;;;4919384;29;20029;-92
2022/03/27 04:58:34;;;;;;;19.60;11.77;;;8.30;99.90;;;;;;4920334;29;20131;-92
2022/03/27 05:01:00;;;;;;;19.77;12.60;;;8.30;99.90;;;;;;4919846;29;20553;-92
2022/03/27 05:03:26;;;;;;;18.33;12.02;;;8.30;99.90;;;;;;4920040;29;20036;-92
2022/03/27 05:05:51;;;;;;;17.88;11.40;;;8.30;99.90;;;;;;4919814;29;20515;-92
2022/03/27 05:08:17;;;;;;;17.15;10.15;;;8.30;99.90;;;;;;4919764;29;20111;-90
2022/03/27 05:10:43;;;;;;;18.85;12.00;;;8.30;99.90;;;;;;4919911;29;20036;-90
2022/03/27 05:13:09;;;;;;;19.42;12.30;;;8.30;99.90;;;;;;4920822;29;20047;-91
2022/03/27 05:15:35;;;;;;;16.73;11.40;;;8.30;99.90;;;;;;4921152;29;20040;-91
2022/03/27 05:18:01;;;;;;;20.02;12.27;;;8.20;99.90;;;;;;4941310;29;20036;-91
2022/03/27 05:20:31;;;;;;;17.20;11.38;;;8.30;99.90;;;;;;4942651;29;20028;-91
2022/03/27 05:23:01;;;;;;;18.35;11.48;;;8.30;99.90;;;;;;4942582;28;20028;-92
2022/03/27 05:25:27;;;;;;;17.75;12.15;;;8.20;99.90;;;;;;4942273;29;20034;-92
2022/03/27 05:27:54;;;;;;;17.67;10.93;;;8.20;99.90;;;;;;4942446;29;20032;-91
2022/03/27 05:30:22;;;;;;;17.25;11.35;;;8.10;99.90;;;;;;4942089;28;20028;-92
2022/03/27 05:32:53;;;;;;;17.55;11.02;;;8.10;99.90;;;;;;4942367;28;20028;-92
2022/03/27 05:35:19;;;;;;;18.75;11.68;;;8.00;99.90;;;;;;4942352;29;20028;-92
2022/03/27 05:37:47;;;;;;;15.73;11.00;;;7.90;99.90;;;;;;4941692;29;20032;-92
2022/03/27 05:40:14;;;;;;;15.35;10.75;;;7.80;99.90;;;;;;4941694;28;20024;-93
2022/03/27 05:42:40;;;;;;;15.75;10.10;;;7.80;99.90;;;;;;4953305;28;20028;-94
2022/03/27 05:45:07;;;;;;;16.48;10.65;;;7.80;99.90;;;;;;4938774;29;20041;-90
2022/03/27 05:47:34;;;;;;;13.75;9.52;;;7.70;99.90;;;;;;4934380;28;20027;-91
2022/03/27 05:50:01;;;;;;;14.10;9.57;;;7.60;99.90;;;;;;4940667;29;20040;-92
2022/03/27 05:52:27;;;;;;;13.90;9.75;;;7.60;99.90;;;;;;4937193;29;20040;-91
2022/03/27 05:54:53;;;;;;;14.27;10.13;;;7.50;99.90;;;;;;4934889;29;20059;-90
2022/03/27 05:57:19;;;;;;;15.27;10.68;;;7.50;99.90;;;;;;4934438;29;20051;-93
2022/03/27 05:59:48;;;;;;;15.43;10.68;;;7.40;99.90;;;;;;4935046;29;20032;-91
2022/03/27 06:02:15;;;;;;;16.52;10.10;;;7.40;99.90;;;;;;4922343;29;20465;-92
2022/03/27 06:04:41;;;;;;;13.63;9.10;;;7.30;99.90;;;;;;4926343;29;20035;-91
2022/03/27 06:07:08;;;;;;;14.18;9.77;;;7.30;99.90;;;;;;4930587;29;20035;-92
2022/03/27 06:09:34;;;;;;;14.88;9.35;;;7.20;99.90;;;;;;4931163;29;20124;-90
2022/03/27 06:12:00;;;;;;;15.63;10.52;;;7.20;99.90;;;;;;4931487;29;20040;-89
2022/03/27 06:14:27;;;;;;;19.17;11.75;;;7.20;99.90;;;;;;4924300;29;20439;-91
2022/03/27 06:16:52;;;;;;;19.73;11.48;;;7.20;99.90;;;;;;4922347;29;20031;-89
2022/03/27 06:19:18;;;;;;;18.35;11.27;;;7.10;99.90;;;;;;4924993;29;20044;-93
2022/03/27 06:21:45;;;;;;;18.88;11.07;;;7.20;99.90;;;;;;4922463;29;20052;-91
2022/03/27 06:24:12;;;;;;;18.77;11.55;;;7.20;99.90;;;;;;4919992;29;20048;-92
2022/03/27 06:26:41;;;;;;;23.42;12.88;;;7.20;99.90;;;;;;4919853;29;20051;-92
2022/03/27 06:29:10;;;;;;;20.58;10.85;;;7.20;99.90;;;;;;4905405;29;20040;-92
2022/03/27 06:31:38;;;;;;;17.98;11.00;;;7.30;99.90;;;;;;4903676;29;20212;-92
2022/03/27 06:34:04;;;;;;;20.45;12.18;;;7.40;99.90;;;;;;4919655;29;20052;-92
2022/03/27 06:36:30;;;;;;;18.80;11.70;;;7.50;99.90;;;;;;4919598;29;20399;-91
2022/03/27 06:38:56;;;;;;;17.95;11.90;;;7.50;99.90;;;;;;4918323;29;20058;-91
2022/03/27 06:41:21;;;;;;;21.92;12.23;;;7.60;99.90;;;;;;4918514;29;20071;-90
2022/03/27 06:43:47;;;;;;;16.58;10.25;;;7.50;99.90;;;;;;4921432;29;20112;-90
2022/03/27 06:46:16;;;;;;;16.73;10.27;;;7.50;99.90;;;;;;4921632;29;20032;-90
2022/03/27 06:48:44;;;;;;;16.98;10.75;;;7.50;99.90;;;;;;4921515;29;20059;-91
2022/03/27 06:51:10;;;;;;;18.23;11.13;;;7.40;99.90;;;;;;4921255;29;20506;-92
2022/03/27 06:53:36;;;;;;;17.65;10.93;;;7.40;99.90;;;;;;4920176;29;20051;-91
2022/03/27 06:56:02;;;;;;;16.92;11.00;;;7.40;99.90;;;;;;4904189;29;20037;-91
2022/03/27 06:58:28;;;;;;;17.98;11.98;;;7.50;99.90;;;;;;4922473;29;20060;-92
2022/03/27 07:03:38;;;;;;;19.02;11.82;;;7.50;99.90;;;;;;4925184;29;20455;-92
2022/03/27 07:06:03;;;;;;;19.33;10.52;;;7.50;99.90;;;;;;4925220;29;20024;-92
2022/03/27 07:08:29;;;;;;;17.33;11.05;;;7.50;99.90;;;;;;4922289;29;20036;-93
2022/03/27 07:10:55;;;;;;;19.48;11.32;;;7.50;99.90;;;;;;4921484;29;20039;-91
2022/03/27 07:13:21;;;;;;;17.48;11.30;;;7.60;99.90;;;;;;4923353;29;20483;-91
2022/03/27 07:15:49;;;;;;;16.13;10.82;;;7.60;99.90;;;;;;4921383;29;20032;-91
2022/03/27 07:18:16;;;;;;;18.73;11.38;;;7.60;99.90;;;;;;4921536;29;20402;-90
2022/03/27 07:20:43;;;;;;;19.73;10.98;;;7.60;99.90;;;;;;4921408;29;20024;-90
2022/03/27 07:23:13;;;;;;;16.60;9.98;;;7.70;99.90;;;;;;4920995;29;20032;-90
2022/03/27 07:25:42;;;;;;;18.20;10.85;;;7.70;99.90;;;;;;4921155;29;20036;-86
2022/03/27 07:28:09;;;;;;;17.15;10.20;;;7.80;99.90;;;;;;4920885;29;20071;-88
2022/03/27 07:30:36;;;;;;;17.30;11.00;;;7.80;99.90;;;;;;4920888;29;20419;-89
2022/03/27 07:33:02;;;;;;;19.63;10.48;;;7.90;99.90;;;;;;4920726;29;20063;-90
2022/03/27 07:35:30;;;;;;;17.38;11.00;;;7.80;99.90;;;;;;4921023;29;20088;-89
2022/03/27 07:37:56;;;;;;;17.33;11.05;;;7.80;99.90;;;;;;4921149;29;20111;-90
2022/03/27 07:40:22;;;;;;;15.23;10.13;;;7.80;99.90;;;;;;4905058;29;20092;-88
2022/03/27 07:42:50;;;;;;;19.02;11.25;;;7.80;99.90;;;;;;4920934;29;20032;-88
2022/03/27 07:45:22;;;;;;;17.55;11.07;;;7.80;99.90;;;;;;4920805;29;20024;-91
2022/03/27 07:47:49;;;;;;;18.35;11.23;;;7.90;99.90;;;;;;4921224;29;20040;-90
2022/03/27 07:50:16;;;;;;;18.60;10.60;;;7.90;99.90;;;;;;4920649;29;20051;-90
2022/03/27 07:52:43;;;;;;;16.70;10.25;;;7.90;99.90;;;;;;4921075;29;20044;-91
2022/03/27 07:55:10;;;;;;;15.05;9.52;;;8.00;99.90;;;;;;4921593;29;20488;-89
2022/03/27 07:57:36;;;;;;;17.80;10.30;;;8.10;99.90;;;;;;4936166;29;20187;-88
2022/03/27 08:00:02;;;;;;;16.45;10.18;;;8.10;99.90;;;;;;4920576;29;20036;-91
2022/03/27 08:02:28;;;;;;;17.70;11.25;;;8.20;99.90;;;;;;4905098;29;20043;-89
2022/03/27 08:04:53;;;;;;;18.38;11.95;;;8.20;99.90;;;;;;4901509;29;20036;-90
2022/03/27 08:07:19;;;;;;;18.95;11.35;;;8.20;99.90;;;;;;4912004;29;20047;-88
2022/03/27 08:09:45;;;;;;;19.35;11.68;;;8.20;99.90;;;;;;4903821;29;20035;-88
2022/03/27 08:12:11;;;;;;;20.30;12.68;;;8.30;99.90;;;;;;4904232;29;20071;-88
2022/03/27 08:14:38;;;;;;;20.25;12.27;;;8.30;99.90;;;;;;4904541;29;20498;-88
2022/03/27 08:17:05;;;;;;;16.92;10.45;;;8.30;99.90;;;;;;4904655;29;20075;-89
2022/03/27 08:19:32;;;;;;;21.02;12.93;;;8.40;99.90;;;;;;4904819;29;20296;-89
2022/03/27 08:21:58;;;;;;;16.90;11.50;;;8.40;99.90;;;;;;4905477;29;20361;-88
2022/03/27 08:24:24;;;;;;;19.52;11.95;;;8.50;99.90;;;;;;4909373;29;20522;-88
2022/03/27 08:26:56;;;;;;;16.20;10.40;;;8.60;99.90;;;;;;4922086;29;20531;-90
2022/03/27 08:29:29;;;;;;;18.15;11.20;;;8.70;99.90;;;;;;4909264;29;20039;-90
2022/03/27 08:31:55;;;;;;;17.42;11.32;;;8.70;99.90;;;;;;4895299;29;20052;-88
2022/03/27 08:34:25;;;;;;;17.08;11.50;;;8.80;99.90;;;;;;4911335;29;20091;-86
2022/03/27 08:36:51;;;;;;;18.95;12.00;;;8.90;99.90;;;;;;4925693;29;20170;-90
2022/03/27 08:39:18;;;;;;;16.58;10.85;;;9.00;99.90;;;;;;4922964;29;20452;-91
2022/03/27 08:41:44;;;;;;;16.58;10.63;;;9.00;99.90;;;;;;4906328;29;20029;-90
2022/03/27 08:44:12;;;;;;;16.48;11.13;;;9.10;99.90;;;;;;4903296;29;20065;-89
2022/03/27 08:46:39;;;;;;;15.10;10.57;;;9.20;99.90;;;;;;4902130;29;20087;-88
2022/03/27 08:49:30;;;;;;;15.70;9.88;;;9.30;99.90;;;;;;4920555;29;20087;-87
2022/03/27 08:52:21;;;;;;;14.63;9.27;;;9.40;99.90;;;;;;4920254;29;20040;-89
2022/03/27 08:54:57;;;;;;;14.15;9.13;;;9.50;99.90;;;;;;4921328;29;20048;-87
2022/03/27 08:57:29;;;;;;;16.55;10.10;;;9.50;99.90;;;;;;4920247;29;20024;-87
2022/03/27 08:59:57;;;;;;;16.70;9.57;;;9.70;99.90;;;;;;4920409;29;20043;-88
2022/03/27 09:02:24;;;;;;;14.55;9.40;;;9.80;99.90;;;;;;4920165;29;20028;-89
2022/03/27 09:04:54;;;;;;;16.25;10.00;;;9.90;99.90;;;;;;4920302;29;20104;-89
2022/03/27 09:07:23;;;;;;;16.60;11.40;;;10.00;99.90;;;;;;4903066;29;20180;-89
2022/03/27 09:09:48;;;;;;;15.27;10.68;;;10.10;99.90;;;;;;4902982;29;20063;-89
2022/03/27 09:12:18;;;;;;;20.10;12.63;;;10.10;99.90;;;;;;4902750;29;20483;-87
2022/03/27 09:14:48;;;;;;;23.17;13.48;;;10.20;99.90;;;;;;4903531;29;20050;-86
2022/03/27 09:17:14;;;;;;;20.73;12.85;;;10.20;99.90;;;;;;4921194;29;20036;-89
2022/03/27 09:19:45;;;;;;;18.50;12.10;;;10.30;99.90;;;;;;4923022;29;20032;-85
2022/03/27 09:22:14;;;;;;;16.00;10.90;;;10.40;99.90;;;;;;4905347;29;20051;-89
2022/03/27 09:24:40;;;;;;;16.25;10.27;;;10.50;99.90;;;;;;4904799;29;20464;-87
2022/03/27 09:27:06;;;;;;;18.60;12.18;;;10.60;99.90;;;;;;4919782;29;20040;-89
2022/03/27 09:29:55;;;;;;;18.08;11.57;;;10.60;99.90;;;;;;4920633;29;20028;-88
2022/03/27 09:32:31;;;;;;;20.25;12.00;;;10.70;99.90;;;;;;4919537;29;20099;-88
2022/03/27 09:35:06;;;;;;;15.50;10.57;;;10.90;99.90;;;;;;4919269;29;20035;-88
2022/03/27 09:37:38;;;;;;;13.90;10.18;;;10.90;99.90;;;;;;4901819;29;20500;-90
2022/03/27 09:40:06;;;;;;;15.07;9.77;;;11.00;99.90;;;;;;4919202;29;20044;-87
2022/03/27 09:42:31;;;;;;;15.25;10.38;;;11.10;99.90;;;;;;4919832;29;20095;-89
2022/03/27 09:45:25;;;;;;;17.05;10.32;;;11.30;99.90;;;;;;4902810;29;20033;-89
2022/03/27 09:47:53;;;;;;;;;;;11.40;99.90;;;;;;4919910;29;20048;-87
2022/03/27 09:50:38;;;;;;;15.13;10.38;;;12.00;99.90;;;;;;4915608;29;19911;-88
2022/03/27 09:53:36;;;;;;;19.67;14.23;;;13.80;99.90;;;;;;4916420;29;20103;-88
2022/03/27 09:56:02;;;;;;;13.93;10.48;;;15.80;99.90;;;;;;4873570;29;20103;-88
2022/03/27 09:58:37;;;;;;;15.65;10.48;;;16.90;99.90;;;;;;4898967;29;20043;-87
2022/03/27 10:01:24;;;;;;;17.02;12.13;;;17.90;99.90;;;;;;4898573;29;20078;-88
2022/03/27 10:03:58;;;;;;;14.15;10.57;;;18.80;99.90;;;;;;4899712;29;20032;-91
2022/03/27 10:06:37;;;;;;;11.30;8.77;;;19.60;99.40;;;;;;4897662;29;20037;-89
2022/03/27 10:09:05;;;;;;;10.25;7.88;;;20.30;98.90;;;;;;4897526;29;20029;-91
2022/03/27 10:11:31;;;;;;;10.48;7.50;;;20.90;97.60;;;;;;4899198;29;20043;-91
2022/03/27 10:13:58;;;;;;;9.77;7.70;;;21.30;96.80;;;;;;4899605;29;20559;-88
2022/03/27 10:16:29;;;;;;;9.20;7.03;;;21.90;95.80;;;;;;4900090;29;20032;-90
2022/03/27 10:19:02;;;;;;;10.27;8.32;;;22.20;94.60;;;;;;4900280;29;20040;-91
2022/03/27 10:21:29;;;;;;;10.65;7.80;;;22.50;93.80;;;;;;4899351;29;20035;-90
2022/03/27 10:24:12;;;;;;;10.20;7.85;;;22.80;92.60;;;;;;4900552;29;20399;-91
2022/03/27 10:26:40;;;;;;;9.20;7.72;;;23.10;91.70;;;;;;4901919;29;20041;-90
2022/03/27 10:29:08;;;;;;;12.68;8.30;;;23.20;91.40;;;;;;4900805;29;20039;-89
2022/03/27 10:31:34;;;;;;;9.93;8.05;;;23.50;90.30;;;;;;4918621;29;20064;-90
2022/03/27 10:34:01;;;;;;;10.30;7.43;;;23.70;87.80;;;;;;4901867;29;20040;-91
2022/03/27 10:36:39;;;;;;;8.70;7.00;;;23.90;87.10;;;;;;4902207;29;20036;-89
2022/03/27 10:39:24;;;;;;;9.30;7.35;;;24.10;84.50;;;;;;4919011;29;20052;-91
2022/03/27 10:42:19;;;;;;;10.15;7.68;;;24.30;83.20;;;;;;4901748;29;20044;-91
2022/03/27 10:44:57;;;;;;;9.52;7.28;;;24.50;82.60;;;;;;4884445;29;20042;-91
2022/03/27 10:47:25;;;;;;;8.13;5.90;;;24.70;81.00;;;;;;4900799;29;20044;-89
2022/03/27 10:50:05;;;;;;;8.50;6.13;;;24.80;80.60;;;;;;4901077;29;20059;-88
2022/03/27 10:52:39;;;;;;;8.23;5.90;;;24.90;79.80;;;;;;4900803;29;20529;-90
2022/03/27 10:55:15;;;;;;;8.45;6.75;;;25.00;78.60;;;;;;4900470;29;20048;-91
2022/03/27 10:57:47;;;;;;;8.63;6.35;;;25.30;76.50;;;;;;4916290;29;20502;-91
2022/03/27 11:00:15;;;;;;;8.25;6.72;;;25.40;75.70;;;;;;4897915;29;20067;-90
2022/03/27 11:02:45;;;;;;;8.60;6.30;;;25.60;74.70;;;;;;4916848;29;20097;-92
2022/03/27 11:05:29;;;;;;;8.88;6.07;;;25.60;72.90;;;;;;4899043;29;20091;-88
2022/03/27 11:08:16;;;;;;;7.72;5.82;;;25.60;72.90;;;;;;4900348;29;20041;-88
2022/03/27 11:10:55;;;;;;;9.63;6.97;;;25.70;72.80;;;;;;4879806;29;20526;-90
2022/03/27 11:13:26;;;;;;;8.82;5.53;;;25.90;70.90;;;;;;4880016;29;20048;-89
2022/03/27 11:16:14;;;;;;;8.10;5.78;;;26.00;70.90;;;;;;4881264;29;20043;-90
2022/03/27 11:18:45;;;;;;;8.25;5.28;;;26.10;69.90;;;;;;4890350;29;20100;-89
2022/03/27 11:21:12;;;;;;;13.25;8.93;;;26.30;68.70;;;;;;4903739;29;20048;-88
2022/03/27 11:23:42;;;;;;;7.55;5.80;;;26.20;67.10;;;;;;4881814;29;20073;-89
2022/03/27 11:26:20;;;;;;;7.05;5.22;;;26.20;67.70;;;;;;4884965;29;20597;-87
2022/03/27 11:28:54;;;;;;;8.02;5.03;;;26.30;67.60;;;;;;4880452;29;20044;-86
2022/03/27 11:31:25;;;;;;;7.40;5.20;;;26.40;67.00;;;;;;4881415;29;20044;-91
2022/03/27 11:34:08;;;;;;;7.40;5.15;;;26.60;66.90;;;;;;4899353;29;20530;-88
2022/03/27 11:36:36;;;;;;;6.95;4.63;;;26.80;66.00;;;;;;4899214;29;20064;-89
2022/03/27 11:39:09;;;;;;;6.40;5.07;;;26.80;64.90;;;;;;4881995;29;20049;-90
2022/03/27 11:41:46;;;;;;;7.72;5.82;;;26.80;63.90;;;;;;4899174;29;20037;-90
2022/03/27 11:44:23;;;;;;;7.22;4.82;;;26.80;64.30;;;;;;4898954;29;20044;-89
2022/03/27 11:46:50;;;;;;;6.82;4.75;;;26.90;63.90;;;;;;4882190;29;20036;-91
2022/03/27 11:49:17;;;;;;;6.55;4.93;;;27.00;63.30;;;;;;4882046;29;20388;-90
2022/03/27 11:51:43;;;;;;;8.13;5.43;;;27.10;62.90;;;;;;4885279;29;20031;-88
2022/03/27 11:54:20;;;;;;;8.35;4.97;;;27.20;63.00;;;;;;4885172;29;20055;-89
2022/03/27 11:56:59;;;;;;;6.30;4.43;;;27.50;62.30;;;;;;4885326;29;20153;-88
2022/03/27 11:59:26;;;;;;;6.97;4.60;;;27.60;61.10;;;;;;4884791;29;20039;-88
2022/03/27 12:02:00;;;;;;;6.68;4.93;;;27.50;61.00;;;;;;4901930;29;20029;-87
2022/03/27 12:04:27;;;;;;;6.78;4.93;;;27.40;60.50;;;;;;4901011;29;20047;-89
2022/03/27 12:06:58;;;;;;;6.47;4.15;;;27.50;60.40;;;;;;4885133;29;20055;-87
2022/03/27 12:09:27;;;;;;;4.97;4.03;;;27.70;60.00;;;;;;4868892;29;20063;-88
2022/03/27 12:12:10;;;;;;;6.57;4.15;;;28.00;59.50;;;;;;4883855;29;20037;-88
2022/03/27 12:15:04;;;;;;;6.07;4.15;;;28.20;59.40;;;;;;4883986;29;20088;-89
2022/03/27 12:17:35;;;;;;;6.88;4.13;;;28.30;58.80;;;;;;4900642;29;20124;-88
2022/03/27 12:20:06;;;;;;;6.88;5.05;;;28.20;59.30;;;;;;4885244;29;20123;-90
2022/03/27 12:22:37;;;;;;;6.77;4.57;;;28.20;56.90;;;;;;4885232;29;20123;-89
2022/03/27 12:25:07;;;;;;;6.75;3.92;;;27.90;57.30;;;;;;4886453;29;20045;-90
2022/03/27 12:30:20;;;;;;;5.00;3.63;;;28.40;57.70;;;;;;4903593;29;20044;-90
2022/03/27 12:32:47;;;;;;;5.85;3.65;;;28.70;56.90;;;;;;4902333;29;20040;-88
2022/03/27 12:35:21;;;;;;;5.30;4.13;;;28.80;56.70;;;;;;4885701;29;20543;-89
2022/03/27 12:37:47;;;;;;;7.15;3.63;;;29.00;57.00;;;;;;4884828;29;20070;-89
2022/03/27 12:40:12;;;;;;;5.22;3.88;;;29.00;57.10;;;;;;4884610;29;20028;-88
2022/03/27 12:42:45;;;;;;;4.63;3.10;;;28.80;55.90;;;;;;4885104;29;20037;-90
2022/03/27 12:45:12;;;;;;;5.07;3.15;;;28.90;56.00;;;;;;4885347;29;20039;-91
2022/03/27 12:47:58;;;;;;;6.63;4.75;;;28.70;55.40;;;;;;4902003;29;20088;-89
2022/03/27 12:50:27;;;;;;;7.65;3.88;;;28.60;56.10;;;;;;4885359;29;20032;-90
2022/03/27 12:52:58;;;;;;;5.80;3.58;;;28.60;57.30;;;;;;4885152;29;20048;-89
2022/03/27 12:55:26;;;;;;;4.50;3.17;;;28.90;56.30;;;;;;4902075;29;20072;-88
2022/03/27 12:57:57;;;;;;;5.22;3.40;;;29.00;55.80;;;;;;4885273;29;20044;-90
2022/03/27 13:00:31;;;;;;;4.22;3.33;;;29.10;55.30;;;;;;4885297;29;20043;-88